Time;durP1;ratioP1;P1;durP2;ratioP2;P2;SDS_P1;SDS_P2;PMS_P1;PMS_P2;Temp;Humidity;BMP_temperature;BMP_pressure;BME280_temperature;BME280_humidity;BME280_pressure;Samples;Min_cycle;Max_cycle;Signal;HPM_P1;HPM_P2
2023/04/01 00:01:00;;;;;;;5.47;3.95;;;10.20;99.90;;;;;;5074511;28;20106;-62
2023/04/01 00:03:29;;;;;;;5.00;4.00;;;10.10;99.90;;;;;;5092089;28;20040;-63
2023/04/01 00:05:57;;;;;;;4.22;3.53;;;10.10;99.90;;;;;;5073499;28;20079;-62
2023/04/01 00:08:24;;;;;;;5.13;4.00;;;10.00;99.90;;;;;;5091612;28;20133;-63
2023/04/01 00:10:57;;;;;;;5.43;3.80;;;10.10;99.90;;;;;;5073663;28;20371;-62
2023/04/01 00:13:26;;;;;;;4.47;3.55;;;10.10;99.90;;;;;;5073955;28;20082;-62
2023/04/01 00:15:55;;;;;;;5.43;3.92;;;10.00;99.90;;;;;;5073359;28;20044;-64
2023/04/01 00:18:22;;;;;;;4.75;4.25;;;10.00;99.90;;;;;;5073594;28;20048;-63
2023/04/01 00:20:50;;;;;;;6.28;3.90;;;10.00;99.90;;;;;;5073952;28;20078;-62
2023/04/01 00:23:17;;;;;;;5.75;4.05;;;10.00;99.90;;;;;;5056602;28;20056;-62
2023/04/01 00:25:46;;;;;;;4.53;3.45;;;10.10;99.90;;;;;;5053673;28;20063;-62
2023/04/01 00:28:14;;;;;;;5.32;4.10;;;10.20;99.90;;;;;;5070393;28;20048;-63
2023/04/01 00:30:41;;;;;;;4.32;3.67;;;10.00;99.90;;;;;;5052980;28;20083;-63
2023/04/01 00:33:07;;;;;;;5.93;4.15;;;10.00;99.90;;;;;;5053588;28;20095;-61
2023/04/01 00:35:34;;;;;;;4.30;3.90;;;10.00;99.90;;;;;;5053107;28;20074;-62
2023/04/01 00:38:00;;;;;;;4.95;3.65;;;10.10;99.90;;;;;;5071079;28;20055;-63
2023/04/01 00:40:45;;;;;;;5.63;4.32;;;10.20;99.90;;;;;;5052804;28;20080;-64
2023/04/01 00:43:19;;;;;;;4.65;4.10;;;10.10;99.90;;;;;;5053592;28;20083;-63
2023/04/01 00:45:47;;;;;;;4.07;3.47;;;10.20;99.90;;;;;;5053421;28;20106;-63
2023/04/01 00:48:17;;;;;;;6.38;3.78;;;10.20;99.90;;;;;;5071403;28;20087;-63
2023/04/01 00:50:52;;;;;;;4.82;3.95;;;10.30;99.90;;;;;;5053182;28;20110;-63
2023/04/01 00:53:21;;;;;;;4.85;4.00;;;10.10;99.90;;;;;;5053283;28;20059;-63
2023/04/01 00:56:26;;;;;;;5.13;3.75;;;10.20;99.90;;;;;;5053040;28;20058;-63
2023/04/01 00:59:22;;;;;;;7.38;4.18;;;10.10;99.90;;;;;;5017219;28;20511;-63
2023/04/01 01:01:50;;;;;;;5.30;4.00;;;10.20;99.90;;;;;;5041093;28;20084;-63
2023/04/01 01:04:26;;;;;;;5.75;4.10;;;10.30;99.90;;;;;;5070919;28;20128;-63
2023/04/01 01:07:15;;;;;;;5.47;4.38;;;10.20;99.90;;;;;;5053482;28;20084;-62
2023/04/01 01:10:03;;;;;;;6.13;3.85;;;10.20;99.90;;;;;;5069387;28;20332;-62
2023/04/01 01:13:10;;;;;;;6.18;4.32;;;10.00;99.90;;;;;;5053289;28;20048;-63
2023/04/01 01:16:18;;;;;;;7.38;4.18;;;10.30;99.90;;;;;;5052430;28;20060;-62
2023/04/01 01:18:54;;;;;;;;;;;10.20;99.90;;;;;;5033781;28;20092;-62
2023/04/01 01:21:57;;;;;;;5.90;4.00;;;10.10;99.90;;;;;;5050407;28;20414;-63
2023/04/01 01:24:30;;;;;;;5.30;3.97;;;10.20;99.90;;;;;;5061948;28;20075;-63
2023/04/01 01:27:04;;;;;;;5.35;4.22;;;10.20;99.90;;;;;;5091324;28;20087;-63
2023/04/01 01:30:03;;;;;;;5.53;4.22;;;10.20;99.90;;;;;;5072904;28;20448;-64
2023/04/01 01:32:42;;;;;;;6.18;4.60;;;10.30;99.90;;;;;;5073100;28;20079;-63
2023/04/01 01:35:25;;;;;;;6.00;4.57;;;10.10;99.90;;;;;;5093849;28;20056;-63
2023/04/01 01:37:56;;;;;;;6.90;4.65;;;10.20;99.90;;;;;;5094481;28;20472;-63
2023/04/01 01:40:28;;;;;;;6.65;4.72;;;10.20;99.90;;;;;;5076673;28;20048;-63
2023/04/01 01:43:04;;;;;;;5.45;4.22;;;10.10;99.90;;;;;;5076895;28;20047;-63
2023/04/01 01:45:34;;;;;;;6.43;3.97;;;10.20;99.90;;;;;;5076569;28;20044;-62
2023/04/01 01:48:08;;;;;;;4.78;3.75;;;10.10;99.90;;;;;;5094442;28;20056;-62
2023/04/01 01:50:36;;;;;;;6.15;4.32;;;10.10;99.90;;;;;;5076072;28;20135;-63
2023/04/01 01:53:09;;;;;;;7.38;4.30;;;10.10;99.90;;;;;;5076419;28;20528;-62
2023/04/01 01:55:38;;;;;;;7.65;5.05;;;10.20;99.90;;;;;;5076240;28;20454;-63
2023/04/01 01:58:14;;;;;;;5.90;4.32;;;10.10;99.90;;;;;;5076602;28;20052;-62
2023/04/01 02:00:52;;;;;;;5.30;4.18;;;10.20;99.90;;;;;;5076378;28;20135;-63
2023/04/01 02:03:22;;;;;;;6.50;4.50;;;10.30;99.90;;;;;;5076238;28;20051;-63
2023/04/01 02:05:52;;;;;;;5.30;3.95;;;10.10;99.90;;;;;;5075986;28;20139;-64
2023/04/01 02:08:23;;;;;;;6.97;4.40;;;10.10;99.90;;;;;;5076703;28;20137;-62
2023/04/01 02:10:59;;;;;;;5.63;4.38;;;10.20;99.90;;;;;;5076088;28;20460;-63
2023/04/01 02:13:58;;;;;;;5.32;3.90;;;10.30;99.90;;;;;;5076103;28;20048;-62
2023/04/01 02:16:35;;;;;;;5.65;4.35;;;10.30;99.90;;;;;;5055827;28;20068;-62
2023/04/01 02:19:07;;;;;;;6.25;4.32;;;10.20;99.90;;;;;;5060322;28;20368;-63
2023/04/01 02:21:36;;;;;;;6.32;4.68;;;10.20;99.90;;;;;;5060056;28;20089;-63
2023/04/01 02:24:07;;;;;;;6.40;4.95;;;10.10;99.90;;;;;;5093394;28;20460;-63
2023/04/01 02:26:37;;;;;;;6.30;4.90;;;10.20;99.90;;;;;;5093696;28;20052;-63
2023/04/01 02:29:05;;;;;;;6.00;4.50;;;10.10;99.90;;;;;;5088516;28;20178;-63
2023/04/01 02:31:33;;;;;;;6.30;4.35;;;10.20;99.90;;;;;;5093049;28;20117;-62
2023/04/01 02:33:59;;;;;;;6.88;4.47;;;10.10;99.90;;;;;;5093965;28;20127;-64
2023/04/01 02:36:26;;;;;;;6.25;4.43;;;10.10;99.90;;;;;;5092021;28;20051;-62
2023/04/01 02:38:55;;;;;;;6.20;4.78;;;10.30;99.90;;;;;;5093317;28;20137;-62
2023/04/01 02:41:21;;;;;;;6.60;4.95;;;10.30;99.90;;;;;;5093654;28;20047;-62
2023/04/01 02:43:47;;;;;;;6.43;4.95;;;10.10;99.90;;;;;;5093698;28;20456;-62
2023/04/01 02:46:13;;;;;;;7.00;4.72;;;10.10;99.90;;;;;;5092393;28;20511;-63
2023/04/01 02:48:40;;;;;;;6.15;4.63;;;10.30;99.90;;;;;;5091831;28;20133;-63
2023/04/01 02:51:14;;;;;;;6.90;4.75;;;10.10;99.90;;;;;;5089193;28;20148;-64
2023/04/01 02:53:41;;;;;;;6.95;4.60;;;10.10;99.90;;;;;;5093736;28;20048;-63
2023/04/01 02:56:07;;;;;;;6.05;4.60;;;10.30;99.90;;;;;;5093163;28;20052;-64
2023/04/01 02:58:33;;;;;;;6.55;4.22;;;10.30;99.90;;;;;;5093636;28;20078;-63
2023/04/01 03:01:00;;;;;;;5.97;4.53;;;10.20;99.90;;;;;;5093164;28;20048;-62
2023/04/01 03:03:26;;;;;;;5.55;4.03;;;10.30;99.90;;;;;;5088629;28;20036;-63
2023/04/01 03:05:55;;;;;;;6.07;4.13;;;10.20;99.90;;;;;;5072380;28;20476;-63
2023/04/01 03:08:22;;;;;;;6.13;4.75;;;10.20;99.90;;;;;;5055412;28;20040;-63
2023/04/01 03:10:48;;;;;;;6.50;4.72;;;10.30;99.90;;;;;;5092055;28;20044;-63
2023/04/01 03:13:21;;;;;;;5.95;4.57;;;10.30;99.90;;;;;;5093477;28;20383;-63
2023/04/01 03:15:48;;;;;;;6.80;4.78;;;10.30;99.90;;;;;;5092123;28;20464;-62
2023/04/01 03:18:14;;;;;;;6.80;5.00;;;10.30;99.90;;;;;;5093220;28;20044;-63
2023/04/01 03:20:41;;;;;;;6.30;4.82;;;10.30;99.90;;;;;;5087417;28;20051;-63
2023/04/01 03:23:07;;;;;;;7.32;5.10;;;10.20;99.90;;;;;;5093082;28;20048;-62
2023/04/01 03:25:34;;;;;;;6.93;4.72;;;10.20;99.90;;;;;;5109504;28;20195;-63
2023/04/01 03:28:01;;;;;;;8.05;5.07;;;10.30;99.90;;;;;;5112989;28;20562;-63
2023/04/01 03:30:28;;;;;;;8.05;5.53;;;10.30;99.90;;;;;;5113150;28;20083;-62
2023/04/01 03:32:59;;;;;;;10.00;5.40;;;10.30;99.90;;;;;;5113335;28;20044;-63
2023/04/01 03:35:25;;;;;;;7.55;5.63;;;10.20;99.90;;;;;;5094781;28;20557;-63
2023/04/01 03:37:53;;;;;;;8.60;5.57;;;10.10;99.90;;;;;;5112943;28;20079;-63
2023/04/01 03:40:22;;;;;;;8.68;5.65;;;10.30;99.90;;;;;;5112565;28;20433;-64
2023/04/01 03:42:48;;;;;;;8.25;5.38;;;10.10;99.90;;;;;;5112937;28;20114;-62
2023/04/01 03:45:16;;;;;;;8.43;5.43;;;10.20;99.90;;;;;;5112565;28;20478;-63
2023/04/01 03:47:42;;;;;;;8.55;6.07;;;10.30;99.90;;;;;;5094653;28;20048;-63
2023/04/01 03:50:09;;;;;;;10.10;6.18;;;10.30;99.90;;;;;;5095006;27;20075;-62
2023/04/01 03:52:42;;;;;;;12.55;7.53;;;10.20;99.90;;;;;;5085535;27;20529;-62
2023/04/01 03:55:08;;;;;;;8.55;6.75;;;10.20;99.90;;;;;;5102435;27;20454;-63
2023/04/01 03:57:39;;;;;;;11.38;7.13;;;10.30;99.90;;;;;;5092691;28;20039;-63
2023/04/01 04:00:06;;;;;;;9.38;6.20;;;10.30;99.90;;;;;;5089482;28;20078;-62
2023/04/01 04:02:32;;;;;;;11.50;7.30;;;10.30;99.90;;;;;;5093298;28;20070;-62
2023/04/01 04:04:58;;;;;;;9.70;6.72;;;10.20;99.90;;;;;;5111430;28;20036;-63
2023/04/01 04:07:24;;;;;;;11.07;6.63;;;10.40;99.90;;;;;;5111845;28;20483;-63
2023/04/01 04:09:51;;;;;;;10.63;6.65;;;10.40;99.90;;;;;;5093835;28;20096;-62
2023/04/01 04:12:17;;;;;;;12.27;7.38;;;10.30;99.90;;;;;;5094327;28;20062;-63
2023/04/01 04:14:44;;;;;;;10.45;6.55;;;10.40;99.90;;;;;;5077276;28;20051;-63
2023/04/01 04:17:15;;;;;;;11.32;6.75;;;10.40;99.90;;;;;;5094004;28;20070;-63
2023/04/01 04:19:42;;;;;;;;;;;10.40;99.90;;;;;;5112584;28;20052;-62
2023/04/01 04:22:09;;;;;;;13.02;6.72;;;10.20;99.90;;;;;;5112013;28;20331;-62
2023/04/01 04:24:35;;;;;;;10.43;6.65;;;10.40;99.90;;;;;;5115500;27;20052;-62
2023/04/01 04:27:05;;;;;;;11.50;7.10;;;10.30;99.90;;;;;;5099995;28;20378;-63
2023/04/01 04:29:31;;;;;;;11.68;7.32;;;10.30;99.90;;;;;;5095412;28;20058;-63
2023/04/01 04:31:57;;;;;;;10.40;6.65;;;10.30;99.90;;;;;;5090290;28;20052;-64
2023/04/01 04:34:25;;;;;;;11.20;6.82;;;10.30;99.90;;;;;;5056534;28;20067;-63
2023/04/01 04:36:51;;;;;;;10.38;6.53;;;10.40;99.90;;;;;;5090427;28;20079;-63
2023/04/01 04:39:17;;;;;;;11.18;7.03;;;10.30;99.90;;;;;;5083309;28;20071;-62
2023/04/01 04:41:44;;;;;;;10.57;7.32;;;10.40;99.90;;;;;;5111899;28;20170;-62
2023/04/01 04:44:10;;;;;;;14.10;7.20;;;10.40;99.90;;;;;;5093872;28;20114;-63
2023/04/01 04:46:38;;;;;;;12.43;8.25;;;10.30;99.90;;;;;;5093037;28;20515;-63
2023/04/01 04:49:06;;;;;;;11.60;7.45;;;10.30;99.90;;;;;;5093344;28;20047;-64
2023/04/01 04:51:35;;;;;;;12.20;7.43;;;10.40;99.90;;;;;;5077040;28;20122;-63
2023/04/01 04:54:02;;;;;;;12.20;7.40;;;10.30;99.90;;;;;;5093688;28;20551;-63
2023/04/01 04:56:30;;;;;;;11.05;6.53;;;10.40;99.90;;;;;;5093792;28;20514;-62
2023/04/01 04:58:57;;;;;;;11.57;7.13;;;10.30;99.90;;;;;;5111441;28;20063;-62
2023/04/01 05:01:24;;;;;;;15.45;8.63;;;10.50;99.90;;;;;;5093425;28;20051;-62
2023/04/01 05:03:51;;;;;;;10.45;6.15;;;10.40;99.90;;;;;;5111696;28;20451;-63
2023/04/01 05:06:19;;;;;;;11.50;7.07;;;10.50;99.90;;;;;;5092981;28;20097;-63
2023/04/01 05:08:46;;;;;;;9.65;6.40;;;10.50;99.90;;;;;;5094414;28;20147;-63
2023/04/01 05:11:25;;;;;;;10.80;7.05;;;10.40;99.90;;;;;;5115947;28;20075;-64
2023/04/01 05:13:52;;;;;;;10.05;6.63;;;10.40;99.90;;;;;;5115494;28;20075;-63
2023/04/01 05:16:20;;;;;;;10.57;6.85;;;10.40;99.90;;;;;;5097318;28;20055;-63
2023/04/01 05:18:47;;;;;;;10.93;6.93;;;10.60;99.90;;;;;;5097181;28;20098;-63
2023/04/01 05:21:17;;;;;;;10.38;6.95;;;10.60;99.90;;;;;;5097883;28;20143;-62
2023/04/01 05:23:44;;;;;;;11.60;6.85;;;10.60;99.90;;;;;;5115293;28;20104;-62
2023/04/01 05:26:13;;;;;;;10.60;6.85;;;10.60;99.90;;;;;;5115580;28;20055;-63
2023/04/01 05:28:41;;;;;;;9.57;6.22;;;10.50;99.90;;;;;;5097558;28;20126;-64
2023/04/01 05:31:07;;;;;;;9.93;6.07;;;10.40;99.90;;;;;;5114809;28;20086;-63
2023/04/01 05:33:40;;;;;;;7.55;5.05;;;10.40;99.90;;;;;;5097189;28;20368;-63
2023/04/01 05:36:12;;;;;;;6.43;4.35;;;10.50;99.90;;;;;;5131393;27;20100;-63
2023/04/01 05:38:39;;;;;;;6.60;4.18;;;10.40;99.90;;;;;;5136170;27;20083;-62
2023/04/01 05:41:07;;;;;;;5.80;4.03;;;10.40;99.90;;;;;;5131178;27;20051;-63
2023/04/01 05:43:36;;;;;;;5.32;3.65;;;10.30;99.90;;;;;;5135718;27;20043;-63
2023/04/01 05:46:03;;;;;;;5.68;3.95;;;10.30;99.90;;;;;;5122021;27;20281;-63
2023/04/01 05:48:29;;;;;;;4.75;3.40;;;10.40;99.90;;;;;;5135900;27;20050;-63
2023/04/01 05:50:55;;;;;;;4.95;3.13;;;10.40;99.90;;;;;;5116244;27;20077;-63
2023/04/01 05:53:29;;;;;;;4.60;2.97;;;10.30;99.90;;;;;;5131305;27;20051;-63
2023/04/01 05:55:55;;;;;;;5.07;3.40;;;10.50;99.90;;;;;;5114513;28;20075;-64
2023/04/01 05:58:23;;;;;;;4.50;2.88;;;10.40;99.90;;;;;;5114778;28;20085;-64
2023/04/01 06:01:03;;;;;;;4.80;3.22;;;10.50;99.90;;;;;;5096143;28;20052;-64
2023/04/01 06:03:30;;;;;;;4.05;2.90;;;10.40;99.90;;;;;;5114996;28;20112;-64
2023/04/01 06:05:56;;;;;;;4.90;3.65;;;10.30;99.90;;;;;;5116633;27;20086;-63
2023/04/01 06:08:30;;;;;;;5.05;3.65;;;10.50;99.90;;;;;;5114784;28;20094;-63
2023/04/01 06:11:10;;;;;;;5.35;3.67;;;10.40;99.90;;;;;;5116879;27;20437;-63
2023/04/01 06:13:52;;;;;;;4.93;3.40;;;10.30;99.90;;;;;;5094400;28;20387;-62
2023/04/01 06:16:37;;;;;;;5.97;4.18;;;10.30;99.90;;;;;;5093341;28;20469;-63
2023/04/01 06:19:16;;;;;;;6.95;4.28;;;10.40;99.90;;;;;;5062502;28;20135;-64
2023/04/01 06:21:54;;;;;;;8.40;4.95;;;10.50;99.90;;;;;;5113338;28;20139;-63
2023/04/01 06:24:29;;;;;;;7.97;4.60;;;10.40;99.90;;;;;;5075837;28;20117;-65
2023/04/01 06:27:22;;;;;;;7.88;4.90;;;10.50;99.90;;;;;;5075813;28;20127;-63
2023/04/01 06:29:56;;;;;;;7.45;5.10;;;10.50;99.90;;;;;;5060760;28;20071;-64
2023/04/01 06:32:57;;;;;;;9.00;4.90;;;10.50;99.90;;;;;;5075949;28;20387;-63
2023/04/01 06:35:57;;;;;;;7.45;4.55;;;10.50;99.90;;;;;;5093905;28;20113;-64
2023/04/01 06:39:08;;;;;;;8.18;5.38;;;10.50;99.90;;;;;;5093997;28;20062;-64
2023/04/01 06:41:59;;;;;;;9.07;4.95;;;10.50;99.90;;;;;;5056037;28;20040;-64
2023/04/01 06:44:44;;;;;;;7.47;4.45;;;10.60;99.90;;;;;;5073776;28;20088;-64
2023/04/01 06:47:25;;;;;;;7.40;4.13;;;10.60;99.90;;;;;;5055867;28;20076;-63
2023/04/01 06:50:10;;;;;;;8.15;4.18;;;10.70;99.90;;;;;;5082989;28;20113;-63
2023/04/01 06:53:02;;;;;;;8.05;4.35;;;10.70;99.90;;;;;;5093913;28;20090;-63
2023/04/01 06:55:37;;;;;;;5.95;3.88;;;10.60;99.90;;;;;;5075589;28;20048;-63
2023/04/01 06:58:11;;;;;;;6.32;4.00;;;10.80;99.90;;;;;;5075483;28;20144;-63
2023/04/01 07:00:45;;;;;;;6.40;3.88;;;10.70;99.90;;;;;;5092534;28;20044;-63
2023/04/01 07:03:22;;;;;;;5.53;3.83;;;10.70;99.90;;;;;;5067314;28;20048;-63
2023/04/01 07:05:50;;;;;;;6.72;3.90;;;10.80;99.90;;;;;;5091561;28;20112;-63
2023/04/01 07:08:30;;;;;;;6.28;3.78;;;10.80;99.90;;;;;;5056354;28;20086;-63
2023/04/01 07:11:03;;;;;;;6.55;3.83;;;10.90;99.90;;;;;;5064119;28;20048;-64
2023/04/01 07:13:44;;;;;;;7.55;4.53;;;10.90;99.90;;;;;;5070699;28;20103;-64
2023/04/01 07:16:20;;;;;;;7.00;3.83;;;10.90;99.90;;;;;;5071383;28;20132;-64
2023/04/01 07:18:54;;;;;;;6.20;3.63;;;10.90;99.90;;;;;;5071990;28;20055;-64
2023/04/01 07:21:29;;;;;;;6.90;4.20;;;10.90;99.90;;;;;;5093424;28;20044;-64
2023/04/01 07:24:00;;;;;;;7.07;3.85;;;10.90;99.90;;;;;;5074968;28;20092;-63
2023/04/01 07:26:31;;;;;;;6.05;3.58;;;10.90;99.90;;;;;;5093347;28;20093;-64
2023/04/01 07:28:58;;;;;;;5.45;3.42;;;11.00;99.90;;;;;;5091247;28;20094;-63
2023/04/01 07:31:43;;;;;;;5.80;3.60;;;11.10;99.90;;;;;;5090678;28;20075;-64
2023/04/01 07:34:13;;;;;;;5.63;3.45;;;11.20;99.90;;;;;;5092707;28;20098;-64
2023/04/01 07:37:22;;;;;;;5.65;3.20;;;11.30;99.90;;;;;;5092485;28;20474;-63
2023/04/01 07:40:27;;;;;;;5.30;3.00;;;11.40;99.90;;;;;;5074375;28;20109;-63
2023/04/01 07:43:14;;;;;;;5.00;2.97;;;11.40;99.90;;;;;;5060115;28;20364;-64
2023/04/01 07:46:10;;;;;;;5.88;3.55;;;11.50;99.90;;;;;;5075060;28;20578;-64
2023/04/01 07:49:08;;;;;;;5.95;2.88;;;11.50;99.90;;;;;;5054659;28;20060;-65
2023/04/01 07:51:52;;;;;;;5.00;3.13;;;11.60;99.90;;;;;;5039172;28;20044;-64
2023/04/01 07:54:35;;;;;;;5.47;3.20;;;11.50;99.90;;;;;;5072212;28;20422;-65
2023/04/01 07:57:25;;;;;;;5.57;3.55;;;11.50;99.90;;;;;;5071680;28;20457;-64
2023/04/01 08:00:08;;;;;;;5.80;3.85;;;11.50;99.90;;;;;;5080094;28;20048;-63
2023/04/01 08:02:38;;;;;;;5.88;4.20;;;11.60;99.90;;;;;;5074220;28;20109;-64
2023/04/01 08:05:12;;;;;;;6.72;4.68;;;11.50;99.90;;;;;;5074370;28;20051;-65
2023/04/01 08:07:49;;;;;;;7.28;5.07;;;11.60;99.90;;;;;;5074771;28;20047;-64
2023/04/01 08:10:36;;;;;;;6.32;4.65;;;11.60;99.90;;;;;;5092375;28;20080;-64
2023/04/01 08:13:41;;;;;;;5.47;3.70;;;11.60;99.90;;;;;;5074139;28;20056;-65
2023/04/01 08:16:31;;;;;;;6.07;4.03;;;11.70;99.90;;;;;;5073980;28;20052;-63
2023/04/01 08:19:22;;;;;;;5.05;3.38;;;11.70;99.90;;;;;;5091774;28;20048;-64
2023/04/01 08:21:54;;;;;;;5.03;3.22;;;11.90;99.90;;;;;;5072326;28;20079;-64
2023/04/01 08:24:42;;;;;;;4.13;3.20;;;11.90;99.90;;;;;;5073757;28;20079;-64
2023/04/01 08:27:31;;;;;;;3.92;2.50;;;11.90;99.90;;;;;;5091970;28;20383;-64
2023/04/01 08:30:03;;;;;;;3.10;2.22;;;11.90;99.90;;;;;;5094603;28;20040;-64
2023/04/01 08:32:37;;;;;;;3.72;2.35;;;12.00;99.90;;;;;;5078103;28;20327;-64
2023/04/01 08:35:20;;;;;;;3.70;2.60;;;12.00;99.90;;;;;;5075041;28;20151;-64
2023/04/01 08:37:48;;;;;;;3.65;2.13;;;12.20;99.90;;;;;;5073837;28;20080;-65
2023/04/01 08:40:29;;;;;;;3.22;2.50;;;12.20;99.90;;;;;;5092167;28;20051;-63
2023/04/01 08:43:30;;;;;;;2.83;2.15;;;12.20;99.90;;;;;;5089936;28;20502;-64
2023/04/01 08:46:17;;;;;;;3.33;2.30;;;12.30;99.90;;;;;;5073772;28;20044;-65
2023/04/01 08:49:10;;;;;;;3.60;2.40;;;12.30;99.90;;;;;;5091390;28;20044;-66
2023/04/01 08:51:45;;;;;;;4.47;2.63;;;12.20;99.90;;;;;;5053320;28;20095;-65
2023/04/01 08:54:33;;;;;;;4.43;3.33;;;12.20;99.90;;;;;;5053809;28;20105;-64
2023/04/01 08:57:33;;;;;;;4.68;3.35;;;12.10;99.90;;;;;;5071287;28;20488;-64
2023/04/01 09:00:15;;;;;;;4.65;3.25;;;12.00;99.90;;;;;;5080792;28;20055;-63
2023/04/01 09:02:49;;;;;;;5.13;3.60;;;12.00;99.90;;;;;;5091198;28;20048;-64
2023/04/01 09:05:19;;;;;;;5.93;3.95;;;11.90;99.90;;;;;;5073834;28;20474;-63
2023/04/01 09:08:04;;;;;;;5.05;3.38;;;11.90;99.90;;;;;;5070104;28;20044;-61
2023/04/01 09:10:49;;;;;;;6.82;4.88;;;12.00;99.90;;;;;;5083721;28;20514;-62
2023/04/01 09:13:40;;;;;;;6.93;4.72;;;11.90;99.90;;;;;;5073249;28;20083;-65
2023/04/01 09:16:21;;;;;;;6.65;5.22;;;11.80;99.90;;;;;;5090543;28;20048;-63
2023/04/01 09:19:04;;;;;;;7.30;4.90;;;11.80;99.90;;;;;;5091436;28;20052;-64
2023/04/01 09:21:34;;;;;;;7.82;4.85;;;11.70;99.90;;;;;;5065116;28;20058;-63
2023/04/01 09:24:34;;;;;;;6.75;4.40;;;11.70;99.90;;;;;;5053904;28;20095;-64
2023/04/01 09:27:03;;;;;;;9.00;4.97;;;11.80;99.90;;;;;;5091520;28;20040;-63
2023/04/01 09:30:06;;;;;;;6.63;4.95;;;11.70;99.90;;;;;;5073256;28;20056;-65
2023/04/01 09:32:55;;;;;;;7.68;5.07;;;11.80;99.90;;;;;;5072173;28;20132;-64
2023/04/01 09:35:23;;;;;;;5.55;4.28;;;11.80;99.90;;;;;;5086600;28;20076;-64
2023/04/01 09:38:17;;;;;;;4.20;2.80;;;11.80;99.90;;;;;;5089531;28;20094;-64
2023/04/01 09:40:57;;;;;;;3.28;2.55;;;11.90;99.90;;;;;;5089850;28;20452;-64
2023/04/01 09:43:45;;;;;;;3.83;2.63;;;11.90;99.90;;;;;;5088761;28;20048;-65
2023/04/01 09:46:37;;;;;;;4.00;2.45;;;11.90;99.90;;;;;;5090865;28;20082;-63
2023/04/01 09:49:35;;;;;;;3.20;2.25;;;11.90;99.90;;;;;;5071970;28;20143;-64
2023/04/01 09:52:05;;;;;;;2.80;2.05;;;12.00;99.90;;;;;;5091129;28;20529;-63
2023/04/01 09:54:58;;;;;;;3.30;2.40;;;11.90;99.90;;;;;;5091766;28;20084;-65
2023/04/01 09:57:46;;;;;;;4.00;2.45;;;11.90;99.90;;;;;;5095020;28;20044;-64
2023/04/01 10:00:33;;;;;;;3.78;2.55;;;12.00;99.90;;;;;;5076496;28;20117;-65
2023/04/01 10:03:37;;;;;;;3.95;2.95;;;12.00;99.90;;;;;;5093487;28;20044;-63
2023/04/01 10:06:27;;;;;;;4.00;3.15;;;12.00;99.90;;;;;;5092221;28;20458;-64
2023/04/01 10:09:19;;;;;;;4.85;3.38;;;12.10;99.90;;;;;;5094144;28;20055;-64
2023/04/01 10:11:51;;;;;;;4.70;2.78;;;12.20;99.90;;;;;;5093844;28;20055;-64
2023/04/01 10:14:44;;;;;;;5.18;3.50;;;12.20;99.90;;;;;;5092318;28;20079;-64
2023/04/01 10:18:04;;;;;;;4.93;2.92;;;12.30;99.90;;;;;;5094682;28;20044;-64
2023/04/01 10:21:00;;;;;;;5.75;3.65;;;12.20;99.90;;;;;;5025329;28;20087;-63
2023/04/01 10:23:26;;;;;;;6.40;3.97;;;12.20;99.90;;;;;;5094121;28;20075;-63
2023/04/01 10:26:37;;;;;;;6.22;4.07;;;12.20;99.90;;;;;;5076375;28;20095;-64
2023/04/01 10:29:31;;;;;;;5.40;3.92;;;12.10;99.90;;;;;;5099620;28;20072;-64
2023/04/01 10:32:44;;;;;;;6.35;4.53;;;12.20;99.90;;;;;;5100265;28;20094;-63
2023/04/01 10:35:46;;;;;;;6.13;4.50;;;12.30;99.90;;;;;;5071290;28;20055;-64
2023/04/01 10:38:19;;;;;;;7.30;5.40;;;12.40;99.90;;;;;;5102230;28;20040;-64
2023/04/01 10:41:09;;;;;;;6.30;4.93;;;12.30;99.90;;;;;;5099393;28;20104;-65
2023/04/01 10:44:00;;;;;;;6.88;5.10;;;12.40;99.90;;;;;;5103915;28;20055;-63
2023/04/01 10:46:55;;;;;;;7.15;5.15;;;12.40;99.90;;;;;;5101374;28;20044;-63
2023/04/01 10:50:00;;;;;;;7.53;5.32;;;12.50;99.90;;;;;;5102372;28;20047;-64
2023/04/01 10:52:57;;;;;;;7.68;5.50;;;12.70;99.90;;;;;;5100713;28;20460;-64
2023/04/01 10:55:57;;;;;;;8.75;5.72;;;12.70;99.90;;;;;;5100058;28;20463;-63
2023/04/01 10:58:35;;;;;;;8.02;5.55;;;12.70;99.90;;;;;;5100060;28;20036;-64
2023/04/01 11:01:39;;;;;;;6.53;5.15;;;12.70;99.90;;;;;;5097071;28;20043;-65
2023/04/01 11:04:36;;;;;;;9.02;5.88;;;12.70;99.90;;;;;;5103455;28;20155;-64
2023/04/01 11:07:17;;;;;;;6.82;5.32;;;12.80;99.90;;;;;;5107191;28;20043;-64
2023/04/01 11:10:08;;;;;;;7.90;5.75;;;12.70;99.90;;;;;;5102874;28;20058;-62
2023/04/01 11:12:55;;;;;;;7.55;5.93;;;12.80;99.90;;;;;;5101847;28;20170;-64
2023/04/01 11:15:37;;;;;;;8.23;5.72;;;12.90;99.90;;;;;;5101071;28;20083;-62
2023/04/01 11:18:18;;;;;;;8.13;6.05;;;12.90;99.90;;;;;;5091568;28;20048;-62
2023/04/01 11:21:36;;;;;;;10.02;6.85;;;12.90;99.90;;;;;;5098559;28;20119;-62
2023/04/01 11:24:32;;;;;;;9.20;6.38;;;13.00;99.90;;;;;;5094838;28;20467;-62
2023/04/01 11:27:17;;;;;;;8.43;6.43;;;13.10;99.90;;;;;;5089321;28;20048;-63
2023/04/01 11:30:03;;;;;;;9.23;7.53;;;13.10;99.90;;;;;;5100729;28;20122;-63
2023/04/01 11:32:35;;;;;;;9.52;7.22;;;13.10;99.90;;;;;;5101775;28;20181;-63
2023/04/01 11:35:39;;;;;;;9.40;7.47;;;13.10;99.90;;;;;;5101935;28;20050;-62
2023/04/01 11:38:36;;;;;;;9.20;7.20;;;13.00;99.90;;;;;;5102403;28;20460;-63
2023/04/01 11:41:31;;;;;;;8.35;6.65;;;12.80;99.90;;;;;;5094473;28;20127;-62
2023/04/01 11:44:17;;;;;;;7.43;5.22;;;12.70;99.90;;;;;;5096851;28;20040;-62
2023/04/01 11:46:52;;;;;;;6.22;4.53;;;12.60;99.90;;;;;;5094420;28;20058;-62
2023/04/01 11:49:50;;;;;;;5.82;4.95;;;12.30;99.90;;;;;;5092658;28;20082;-62
2023/04/01 11:52:19;;;;;;;6.15;4.57;;;12.10;99.90;;;;;;5092635;28;20075;-62
2023/04/01 11:55:24;;;;;;;5.55;4.22;;;12.10;99.90;;;;;;5092918;28;20056;-62
2023/04/01 11:58:23;;;;;;;6.13;4.32;;;12.00;99.90;;;;;;5075012;28;20150;-62
2023/04/01 12:01:11;;;;;;;5.75;4.45;;;11.90;99.90;;;;;;5091525;28;20572;-65
2023/04/01 12:04:11;;;;;;;5.88;5.28;;;11.80;99.90;;;;;;5092848;28;20075;-63
2023/04/01 12:06:56;;;;;;;6.75;5.03;;;11.70;99.90;;;;;;5093147;28;20128;-62
2023/04/01 12:09:50;;;;;;;5.88;4.78;;;11.50;99.90;;;;;;5092167;28;20142;-62
2023/04/01 12:12:40;;;;;;;5.90;4.70;;;11.40;99.90;;;;;;5091924;28;20044;-62
2023/04/01 12:15:21;;;;;;;7.07;5.53;;;11.30;99.90;;;;;;5074390;28;20059;-62
2023/04/01 12:18:10;;;;;;;5.78;4.38;;;11.20;99.90;;;;;;5091591;28;20147;-62
2023/04/01 12:20:50;;;;;;;8.23;5.60;;;11.10;99.90;;;;;;5091914;28;20292;-62
2023/04/01 12:23:35;;;;;;;5.75;5.10;;;11.10;99.90;;;;;;5091720;28;20097;-62
2023/04/01 12:26:27;;;;;;;5.72;4.57;;;11.00;99.90;;;;;;5091731;28;20067;-61
2023/04/01 12:29:18;;;;;;;5.32;4.15;;;11.00;99.90;;;;;;5092095;28;20055;-62
2023/04/01 12:32:08;;;;;;;4.60;3.72;;;10.90;99.90;;;;;;5071761;28;20060;-62
2023/04/01 12:34:57;;;;;;;5.03;4.18;;;10.90;99.90;;;;;;5042453;28;20067;-63
2023/04/01 12:37:30;;;;;;;;;;;10.90;99.90;;;;;;5072283;28;20076;-62
2023/04/01 12:40:17;;;;;;;4.88;3.55;;;10.80;99.90;;;;;;5078683;28;19959;-62
2023/04/01 12:42:53;;;;;;;5.47;4.18;;;10.80;99.90;;;;;;5091862;28;20091;-62
2023/04/01 12:45:34;;;;;;;4.85;4.18;;;10.80;99.90;;;;;;5073911;28;20476;-62
2023/04/01 12:48:38;;;;;;;5.88;3.53;;;10.70;99.90;;;;;;5074009;28;20071;-62
2023/04/01 12:51:27;;;;;;;6.03;4.05;;;10.90;99.90;;;;;;5090965;28;20136;-63
2023/04/01 12:54:12;;;;;;;;;;;10.80;99.90;;;;;;5092508;28;20055;-62
2023/04/01 12:56:50;;;;;;;5.18;4.05;;;10.90;99.90;;;;;;5091849;28;19920;-62
2023/04/01 13:00:04;;;;;;;4.90;4.20;;;10.90;99.90;;;;;;5091581;28;20075;-63
2023/04/01 13:02:51;;;;;;;4.50;3.55;;;10.90;99.90;;;;;;5091135;28;20094;-64
2023/04/01 13:05:45;;;;;;;4.85;3.25;;;10.90;99.90;;;;;;5091854;28;20076;-64
2023/04/01 13:08:29;;;;;;;5.90;3.85;;;11.00;99.90;;;;;;5091626;28;20440;-63
2023/04/01 13:11:20;;;;;;;4.15;3.55;;;11.10;99.90;;;;;;5091036;28;20540;-63
2023/04/01 13:14:23;;;;;;;5.53;3.92;;;11.10;99.90;;;;;;5091736;28;20479;-63
2023/04/01 13:17:13;;;;;;;4.40;3.55;;;11.00;99.90;;;;;;5091718;28;20063;-63
2023/04/01 13:20:09;;;;;;;4.82;4.00;;;11.00;99.90;;;;;;5080709;28;20484;-62
2023/04/01 13:22:54;;;;;;;;;;;10.90;99.90;;;;;;5089754;28;20098;-62
2023/04/01 13:25:39;;;;;;;4.85;3.90;;;10.90;99.90;;;;;;5089776;28;19955;-64
2023/04/01 13:28:26;;;;;;;5.03;4.32;;;10.70;99.90;;;;;;5091171;28;20040;-63
2023/04/01 13:31:13;;;;;;;6.50;4.20;;;10.60;99.90;;;;;;5091414;28;20128;-62
2023/04/01 13:33:58;;;;;;;5.72;4.75;;;10.60;99.90;;;;;;5094315;28;20504;-62
2023/04/01 13:36:57;;;;;;;7.22;4.70;;;10.60;99.90;;;;;;5094382;28;20364;-63
2023/04/01 13:39:47;;;;;;;6.28;5.18;;;10.50;99.90;;;;;;5094692;28;20082;-63
2023/04/01 13:42:24;;;;;;;5.65;4.68;;;10.50;99.90;;;;;;5092858;28;20040;-62
2023/04/01 13:44:53;;;;;;;5.95;4.75;;;10.40;99.90;;;;;;5092569;28;20044;-63
2023/04/01 13:47:38;;;;;;;6.93;4.72;;;10.40;99.90;;;;;;5076387;28;20545;-62
2023/04/01 13:50:12;;;;;;;5.93;4.85;;;10.50;99.90;;;;;;5069683;28;20080;-63